sensor_id;sensor_type;location;lat;lon;timestamp;pressure;altitude;pressure_sealevel;temperature;humidity
47726;BME280;33483;48.294;16.388;2023-03-29T00:00:34;100365.50;;;0.39;100.00
47726;BME280;33483;48.294;16.388;2023-03-29T00:03:15;100361.59;;;0.40;100.00
47726;BME280;33483;48.294;16.388;2023-03-29T00:05:46;100361.81;;;0.45;100.00
47726;BME280;33483;48.294;16.388;2023-03-29T00:08:14;100354.34;;;0.46;100.00
47726;BME280;33483;48.294;16.388;2023-03-29T00:10:48;100357.41;;;0.48;100.00
47726;BME280;33483;48.294;16.388;2023-03-29T00:13:17;100368.66;;;0.50;100.00
47726;BME280;33483;48.294;16.388;2023-03-29T00:15:47;100357.75;;;0.50;100.00
47726;BME280;33483;48.294;16.388;2023-03-29T00:18:14;100363.63;;;0.48;100.00
47726;BME280;33483;48.294;16.388;2023-03-29T00:20:44;100359.25;;;0.51;100.00
47726;BME280;33483;48.294;16.388;2023-03-29T00:23:12;100347.72;;;0.47;100.00
47726;BME280;33483;48.294;16.388;2023-03-29T00:25:42;100353.06;;;0.50;100.00
47726;BME280;33483;48.294;16.388;2023-03-29T00:28:12;100357.19;;;0.42;100.00
47726;BME280;33483;48.294;16.388;2023-03-29T00:30:40;100354.38;;;0.33;100.00
47726;BME280;33483;48.294;16.388;2023-03-29T00:33:08;100361.69;;;0.24;100.00
47726;BME280;33483;48.294;16.388;2023-03-29T00:35:42;100362.03;;;0.13;100.00
47726;BME280;33483;48.294;16.388;2023-03-29T00:38:09;100363.25;;;-0.01;100.00
47726;BME280;33483;48.294;16.388;2023-03-29T00:40:41;100363.44;;;-0.08;100.00
47726;BME280;33483;48.294;16.388;2023-03-29T00:43:10;100355.94;;;-0.16;100.00
47726;BME280;33483;48.294;16.388;2023-03-29T00:45:38;100369.88;;;-0.27;100.00
47726;BME280;33483;48.294;16.388;2023-03-29T00:48:06;100372.56;;;-0.39;100.00
47726;BME280;33483;48.294;16.388;2023-03-29T00:50:39;100370.13;;;-0.50;100.00
47726;BME280;33483;48.294;16.388;2023-03-29T00:53:09;100370.44;;;-0.60;100.00
47726;BME280;33483;48.294;16.388;2023-03-29T00:55:46;100374.22;;;-0.70;100.00
47726;BME280;33483;48.294;16.388;2023-03-29T00:58:23;100366.34;;;-0.81;100.00
47726;BME280;33483;48.294;16.388;2023-03-29T01:00:56;100369.25;;;-0.88;100.00
47726;BME280;33483;48.294;16.388;2023-03-29T01:03:33;100358.72;;;-0.86;100.00
47726;BME280;33483;48.294;16.388;2023-03-29T01:06:03;100365.75;;;-0.88;100.00
47726;BME280;33483;48.294;16.388;2023-03-29T01:08:36;100356.19;;;-0.93;100.00
47726;BME280;33483;48.294;16.388;2023-03-29T01:11:19;100352.00;;;-0.97;100.00
47726;BME280;33483;48.294;16.388;2023-03-29T01:13:57;100355.34;;;-1.06;100.00
47726;BME280;33483;48.294;16.388;2023-03-29T01:16:29;100350.88;;;-1.13;100.00
47726;BME280;33483;48.294;16.388;2023-03-29T01:19:00;100353.59;;;-1.13;100.00
47726;BME280;33483;48.294;16.388;2023-03-29T01:21:46;100352.56;;;-1.19;100.00
47726;BME280;33483;48.294;16.388;2023-03-29T01:24:28;100352.09;;;-1.30;100.00
47726;BME280;33483;48.294;16.388;2023-03-29T01:27:06;100353.06;;;-1.36;100.00
47726;BME280;33483;48.294;16.388;2023-03-29T01:29:40;100345.81;;;-1.43;100.00
47726;BME280;33483;48.294;16.388;2023-03-29T01:32:15;100344.72;;;-1.45;100.00
47726;BME280;33483;48.294;16.388;2023-03-29T01:37:16;100341.59;;;-1.60;100.00
47726;BME280;33483;48.294;16.388;2023-03-29T01:39:47;100344.38;;;-1.63;100.00
47726;BME280;33483;48.294;16.388;2023-03-29T01:42:21;100340.59;;;-1.66;100.00
47726;BME280;33483;48.294;16.388;2023-03-29T01:44:56;100328.25;;;-1.70;100.00
47726;BME280;33483;48.294;16.388;2023-03-29T01:47:29;100334.13;;;-1.72;100.00
47726;BME280;33483;48.294;16.388;2023-03-29T01:52:30;100323.50;;;-1.66;100.00
47726;BME280;33483;48.294;16.388;2023-03-29T01:55:07;100325.53;;;-1.70;100.00
47726;BME280;33483;48.294;16.388;2023-03-29T01:57:45;100317.38;;;-1.70;100.00
47726;BME280;33483;48.294;16.388;2023-03-29T02:00:19;100311.63;;;-1.72;100.00
47726;BME280;33483;48.294;16.388;2023-03-29T02:02:50;100313.69;;;-1.76;100.00
47726;BME280;33483;48.294;16.388;2023-03-29T02:05:21;100315.78;;;-1.68;100.00
47726;BME280;33483;48.294;16.388;2023-03-29T02:07:49;100309.41;;;-1.61;100.00
47726;BME280;33483;48.294;16.388;2023-03-29T02:10:19;100310.94;;;-1.60;100.00
47726;BME280;33483;48.294;16.388;2023-03-29T02:12:48;100304.84;;;-1.64;100.00
47726;BME280;33483;48.294;16.388;2023-03-29T02:15:17;100312.31;;;-1.68;100.00
47726;BME280;33483;48.294;16.388;2023-03-29T02:17:48;100304.50;;;-1.66;100.00
47726;BME280;33483;48.294;16.388;2023-03-29T02:25:22;100307.63;;;-1.68;100.00
47726;BME280;33483;48.294;16.388;2023-03-29T02:27:52;100321.13;;;-1.64;100.00
47726;BME280;33483;48.294;16.388;2023-03-29T02:30:20;100315.88;;;-1.71;100.00
47726;BME280;33483;48.294;16.388;2023-03-29T02:33:03;100325.63;;;-1.74;100.00
47726;BME280;33483;48.294;16.388;2023-03-29T02:35:45;100320.78;;;-1.66;100.00
47726;BME280;33483;48.294;16.388;2023-03-29T02:38:16;100318.06;;;-1.66;100.00
47726;BME280;33483;48.294;16.388;2023-03-29T02:40:45;100319.09;;;-1.76;100.00
47726;BME280;33483;48.294;16.388;2023-03-29T02:43:14;100325.72;;;-1.77;100.00
47726;BME280;33483;48.294;16.388;2023-03-29T02:45:46;100322.31;;;-1.81;100.00
47726;BME280;33483;48.294;16.388;2023-03-29T02:48:16;100320.63;;;-1.75;100.00
47726;BME280;33483;48.294;16.388;2023-03-29T02:50:48;100318.50;;;-1.68;100.00
47726;BME280;33483;48.294;16.388;2023-03-29T02:53:25;100328.53;;;-1.65;100.00
47726;BME280;33483;48.294;16.388;2023-03-29T02:55:55;100323.84;;;-1.64;100.00
47726;BME280;33483;48.294;16.388;2023-03-29T02:58:23;100324.13;;;-1.59;100.00
47726;BME280;33483;48.294;16.388;2023-03-29T03:00:53;100316.34;;;-1.60;100.00
47726;BME280;33483;48.294;16.388;2023-03-29T03:03:23;100320.28;;;-1.61;100.00
47726;BME280;33483;48.294;16.388;2023-03-29T03:05:52;100316.34;;;-1.60;100.00
47726;BME280;33483;48.294;16.388;2023-03-29T03:08:20;100316.97;;;-1.53;100.00
47726;BME280;33483;48.294;16.388;2023-03-29T03:10:49;100323.50;;;-1.50;100.00
47726;BME280;33483;48.294;16.388;2023-03-29T03:13:21;100323.16;;;-1.52;100.00
47726;BME280;33483;48.294;16.388;2023-03-29T03:15:48;100311.44;;;-1.49;100.00
47726;BME280;33483;48.294;16.388;2023-03-29T03:18:18;100309.81;;;-1.47;100.00
47726;BME280;33483;48.294;16.388;2023-03-29T03:20:54;100318.72;;;-1.46;100.00
47726;BME280;33483;48.294;16.388;2023-03-29T03:23:23;100299.88;;;-1.53;100.00
47726;BME280;33483;48.294;16.388;2023-03-29T03:25:51;100302.94;;;-1.51;100.00
47726;BME280;33483;48.294;16.388;2023-03-29T03:28:19;100292.84;;;-1.51;100.00
47726;BME280;33483;48.294;16.388;2023-03-29T03:30:47;100292.91;;;-1.54;100.00
47726;BME280;33483;48.294;16.388;2023-03-29T03:33:22;100289.09;;;-1.57;100.00
47726;BME280;33483;48.294;16.388;2023-03-29T03:36:17;100296.16;;;-1.59;100.00
47726;BME280;33483;48.294;16.388;2023-03-29T03:38:45;100294.63;;;-1.60;100.00
47726;BME280;33483;48.294;16.388;2023-03-29T03:41:15;100286.06;;;-1.59;100.00
47726;BME280;33483;48.294;16.388;2023-03-29T03:43:43;100291.59;;;-1.62;100.00
47726;BME280;33483;48.294;16.388;2023-03-29T03:46:16;100287.31;;;-1.63;100.00
47726;BME280;33483;48.294;16.388;2023-03-29T03:48:45;100287.31;;;-1.63;100.00
47726;BME280;33483;48.294;16.388;2023-03-29T03:51:28;100289.19;;;-1.60;100.00
47726;BME280;33483;48.294;16.388;2023-03-29T03:53:55;100290.28;;;-1.58;100.00
47726;BME280;33483;48.294;16.388;2023-03-29T03:56:34;100286.06;;;-1.59;100.00
47726;BME280;33483;48.294;16.388;2023-03-29T03:59:21;100282.66;;;-1.63;100.00
47726;BME280;33483;48.294;16.388;2023-03-29T04:02:20;100283.19;;;-1.68;100.00
47726;BME280;33483;48.294;16.388;2023-03-29T04:04:48;100276.28;;;-1.72;100.00
47726;BME280;33483;48.294;16.388;2023-03-29T04:07:17;100274.44;;;-1.75;100.00
47726;BME280;33483;48.294;16.388;2023-03-29T04:10:20;100277.84;;;-1.71;100.00
47726;BME280;33483;48.294;16.388;2023-03-29T04:12:58;100281.38;;;-1.74;100.00
47726;BME280;33483;48.294;16.388;2023-03-29T04:15:30;100274.78;;;-1.73;100.00
47726;BME280;33483;48.294;16.388;2023-03-29T04:18:05;100270.38;;;-1.83;100.00
47726;BME280;33483;48.294;16.388;2023-03-29T04:20:46;100266.97;;;-1.87;100.00
47726;BME280;33483;48.294;16.388;2023-03-29T16:26:26;99937.22;;;8.15;100.00
47726;BME280;33483;48.294;16.388;2023-03-29T16:28:53;99928.69;;;8.13;100.00
47726;BME280;33483;48.294;16.388;2023-03-29T16:31:23;99940.22;;;8.11;100.00
47726;BME280;33483;48.294;16.388;2023-03-29T16:33:52;99937.97;;;8.04;100.00
47726;BME280;33483;48.294;16.388;2023-03-29T16:36:20;99933.94;;;7.94;100.00
47726;BME280;33483;48.294;16.388;2023-03-29T16:43:18;99926.94;;;7.93;100.00
47726;BME280;33483;48.294;16.388;2023-03-29T16:45:45;99933.44;;;7.90;100.00
47726;BME280;33483;48.294;16.388;2023-03-29T16:48:14;99925.91;;;7.85;100.00
47726;BME280;33483;48.294;16.388;2023-03-29T16:50:43;99929.41;;;7.80;100.00
47726;BME280;33483;48.294;16.388;2023-03-29T16:53:11;99928.41;;;7.72;100.00
47726;BME280;33483;48.294;16.388;2023-03-29T16:55:38;99929.38;;;7.69;100.00
47726;BME280;33483;48.294;16.388;2023-03-29T16:58:06;99929.63;;;7.65;100.00
47726;BME280;33483;48.294;16.388;2023-03-29T17:00:33;99929.63;;;7.60;100.00
47726;BME280;33483;48.294;16.388;2023-03-29T17:03:01;99918.09;;;7.61;100.00
47726;BME280;33483;48.294;16.388;2023-03-29T17:05:28;99927.84;;;7.57;100.00
47726;BME280;33483;48.294;16.388;2023-03-29T17:07:58;99915.28;;;7.50;100.00
47726;BME280;33483;48.294;16.388;2023-03-29T17:10:25;99915.78;;;7.49;100.00
47726;BME280;33483;48.294;16.388;2023-03-29T17:12:52;99919.81;;;7.48;100.00
47726;BME280;33483;48.294;16.388;2023-03-29T17:15:19;99918.03;;;7.45;100.00
47726;BME280;33483;48.294;16.388;2023-03-29T17:17:47;99918.56;;;7.49;100.00
47726;BME280;33483;48.294;16.388;2023-03-29T17:20:14;99923.53;;;7.45;100.00
47726;BME280;33483;48.294;16.388;2023-03-29T17:22:44;99934.31;;;7.43;100.00
47726;BME280;33483;48.294;16.388;2023-03-29T17:25:12;99922.56;;;7.42;100.00
47726;BME280;33483;48.294;16.388;2023-03-29T17:27:39;99932.56;;;7.40;100.00
47726;BME280;33483;48.294;16.388;2023-03-29T17:30:07;99931.28;;;7.30;100.00
47726;BME280;33483;48.294;16.388;2023-03-29T17:32:34;99930.53;;;7.35;100.00
47726;BME280;33483;48.294;16.388;2023-03-29T17:35:04;99919.78;;;7.37;100.00
47726;BME280;33483;48.294;16.388;2023-03-29T17:37:31;99925.53;;;7.39;100.00
47726;BME280;33483;48.294;16.388;2023-03-29T17:39:59;99929.75;;;7.29;100.00
47726;BME280;33483;48.294;16.388;2023-03-29T17:42:30;99929.00;;;7.28;100.00
47726;BME280;33483;48.294;16.388;2023-03-29T17:44:59;99929.00;;;7.28;100.00
47726;BME280;33483;48.294;16.388;2023-03-29T17:47:31;99932.50;;;7.23;100.00
47726;BME280;33483;48.294;16.388;2023-03-29T17:49:58;99929.00;;;7.23;100.00
47726;BME280;33483;48.294;16.388;2023-03-29T17:52:27;99932.28;;;7.27;100.00
47726;BME280;33483;48.294;16.388;2023-03-29T17:54:55;99925.22;;;7.20;100.00
47726;BME280;33483;48.294;16.388;2023-03-29T17:57:22;99920.44;;;7.15;100.00
47726;BME280;33483;48.294;16.388;2023-03-29T17:59:49;99927.47;;;7.16;100.00
47726;BME280;33483;48.294;16.388;2023-03-29T18:02:21;99920.97;;;7.19;100.00
47726;BME280;33483;48.294;16.388;2023-03-29T18:04:49;99924.72;;;7.16;100.00
47726;BME280;33483;48.294;16.388;2023-03-29T18:07:19;99924.94;;;7.13;100.00
47726;BME280;33483;48.294;16.388;2023-03-29T18:09:49;99930.47;;;7.18;100.00
47726;BME280;33483;48.294;16.388;2023-03-29T18:12:18;99929.72;;;7.18;100.00
47726;BME280;33483;48.294;16.388;2023-03-29T18:14:47;99929.72;;;7.18;100.00
47726;BME280;33483;48.294;16.388;2023-03-29T18:17:15;99932.47;;;7.18;100.00
47726;BME280;33483;48.294;16.388;2023-03-29T18:19:43;99926.69;;;7.16;100.00
47726;BME280;33483;48.294;16.388;2023-03-29T18:22:10;99925.44;;;7.17;100.00
47726;BME280;33483;48.294;16.388;2023-03-29T18:24:40;99927.97;;;7.15;100.00
47726;BME280;33483;48.294;16.388;2023-03-29T18:27:08;99927.19;;;7.14;100.00
47726;BME280;33483;48.294;16.388;2023-03-29T18:29:36;99931.94;;;7.14;100.00
47726;BME280;33483;48.294;16.388;2023-03-29T18:32:04;99929.72;;;7.18;100.00
47726;BME280;33483;48.294;16.388;2023-03-29T18:34:33;99946.00;;;7.16;100.00
47726;BME280;33483;48.294;16.388;2023-03-29T18:37:01;99932.44;;;7.12;100.00
47726;BME280;33483;48.294;16.388;2023-03-29T18:39:29;99937.47;;;7.14;100.00
47726;BME280;33483;48.294;16.388;2023-03-29T18:41:58;99932.69;;;7.09;100.00
47726;BME280;33483;48.294;16.388;2023-03-29T18:44:27;99937.94;;;7.07;100.00
47726;BME280;33483;48.294;16.388;2023-03-29T18:46:57;99929.13;;;7.03;100.00
47726;BME280;33483;48.294;16.388;2023-03-29T18:49:25;99928.13;;;7.00;100.00
47726;BME280;33483;48.294;16.388;2023-03-29T18:51:54;99943.91;;;7.00;100.00
47726;BME280;33483;48.294;16.388;2023-03-29T18:54:25;99938.66;;;7.02;100.00
47726;BME280;33483;48.294;16.388;2023-03-29T18:56:53;99935.63;;;7.00;100.00
47726;BME280;33483;48.294;16.388;2023-03-29T18:59:25;99935.63;;;7.00;100.00
47726;BME280;33483;48.294;16.388;2023-03-29T19:01:52;99933.38;;;6.98;100.00
47726;BME280;33483;48.294;16.388;2023-03-29T19:04:20;99931.88;;;6.97;100.00
47726;BME280;33483;48.294;16.388;2023-03-29T19:06:52;99934.16;;;6.99;100.00
47726;BME280;33483;48.294;16.388;2023-03-29T19:09:20;99930.63;;;6.98;100.00
47726;BME280;33483;48.294;16.388;2023-03-29T19:11:49;99933.88;;;6.97;100.00
47726;BME280;33483;48.294;16.388;2023-03-29T19:14:17;99934.38;;;6.95;100.00
47726;BME280;33483;48.294;16.388;2023-03-29T19:16:51;99947.38;;;6.95;100.00
47726;BME280;33483;48.294;16.388;2023-03-29T19:19:22;99932.63;;;6.92;100.00
47726;BME280;33483;48.294;16.388;2023-03-29T19:21:51;99933.09;;;6.91;100.00
47726;BME280;33483;48.294;16.388;2023-03-29T19:24:26;99933.56;;;6.89;100.00
47726;BME280;33483;48.294;16.388;2023-03-29T19:26:54;99929.56;;;6.84;100.00
47726;BME280;33483;48.294;16.388;2023-03-29T19:29:24;99937.28;;;6.80;100.00
47726;BME280;33483;48.294;16.388;2023-03-29T19:31:52;99935.75;;;6.74;100.00
47726;BME280;33483;48.294;16.388;2023-03-29T19:34:21;99931.69;;;6.64;100.00
47726;BME280;33483;48.294;16.388;2023-03-29T19:36:52;99933.63;;;6.58;100.00
47726;BME280;33483;48.294;16.388;2023-03-29T19:39:21;99942.09;;;6.49;100.00
47726;BME280;33483;48.294;16.388;2023-03-29T19:41:51;99940.97;;;6.35;100.00
47726;BME280;33483;48.294;16.388;2023-03-29T19:44:18;99950.13;;;6.21;100.00
47726;BME280;33483;48.294;16.388;2023-03-29T19:46:48;99942.47;;;6.05;100.00
47726;BME280;33483;48.294;16.388;2023-03-29T19:49:15;99941.63;;;5.94;100.00
47726;BME280;33483;48.294;16.388;2023-03-29T19:51:43;99932.22;;;5.80;100.00
47726;BME280;33483;48.294;16.388;2023-03-29T19:54:11;99936.09;;;5.68;100.00
47726;BME280;33483;48.294;16.388;2023-03-29T19:56:40;99939.22;;;5.55;100.00
47726;BME280;33483;48.294;16.388;2023-03-29T19:59:08;99941.81;;;5.44;100.00
47726;BME280;33483;48.294;16.388;2023-03-29T20:01:38;99924.19;;;5.31;100.00
47726;BME280;33483;48.294;16.388;2023-03-29T20:04:08;99928.59;;;5.23;100.00
47726;BME280;33483;48.294;16.388;2023-03-29T20:06:36;99924.94;;;5.11;100.00
47726;BME280;33483;48.294;16.388;2023-03-29T20:09:04;99926.13;;;5.05;100.00
47726;BME280;33483;48.294;16.388;2023-03-29T20:11:32;99928.59;;;5.03;100.00
47726;BME280;33483;48.294;16.388;2023-03-29T20:13:59;99923.84;;;5.03;100.00
47726;BME280;33483;48.294;16.388;2023-03-29T20:16:27;99920.41;;;5.08;100.00
47726;BME280;33483;48.294;16.388;2023-03-29T20:18:58;99936.84;;;5.23;100.00
47726;BME280;33483;48.294;16.388;2023-03-29T20:21:29;99925.91;;;5.28;100.00
47726;BME280;33483;48.294;16.388;2023-03-29T20:23:56;99912.50;;;5.36;100.00
47726;BME280;33483;48.294;16.388;2023-03-29T20:26:24;99910.09;;;5.43;100.00
47726;BME280;33483;48.294;16.388;2023-03-29T20:28:52;99894.91;;;5.48;100.00
47726;BME280;33483;48.294;16.388;2023-03-29T20:31:19;99918.72;;;5.56;100.00
47726;BME280;33483;48.294;16.388;2023-03-29T20:33:47;99901.28;;;5.59;100.00
47726;BME280;33483;48.294;16.388;2023-03-29T20:36:15;99910.81;;;5.64;100.00
47726;BME280;33483;48.294;16.388;2023-03-29T20:38:49;99906.81;;;5.65;100.00
47726;BME280;33483;48.294;16.388;2023-03-29T20:41:17;99899.09;;;5.69;100.00
47726;BME280;33483;48.294;16.388;2023-03-29T20:43:45;99904.59;;;5.69;100.00
47726;BME280;33483;48.294;16.388;2023-03-29T20:46:13;99906.13;;;5.70;100.00
47726;BME280;33483;48.294;16.388;2023-03-29T20:48:48;99914.38;;;5.70;100.00
47726;BME280;33483;48.294;16.388;2023-03-29T20:51:22;99906.94;;;5.76;100.00
47726;BME280;33483;48.294;16.388;2023-03-29T20:54:03;99902.19;;;5.77;100.00
47726;BME280;33483;48.294;16.388;2023-03-29T20:56:35;99897.19;;;5.75;100.00
47726;BME280;33483;48.294;16.388;2023-03-29T20:59:06;99892.38;;;5.70;100.00
47726;BME280;33483;48.294;16.388;2023-03-29T21:01:36;99893.34;;;5.67;100.00
47726;BME280;33483;48.294;16.388;2023-03-29T21:04:07;99886.81;;;5.64;100.00
47726;BME280;33483;48.294;16.388;2023-03-29T21:06:36;99891.06;;;5.65;100.00
47726;BME280;33483;48.294;16.388;2023-03-29T21:09:05;99880.00;;;5.60;100.00
47726;BME280;33483;48.294;16.388;2023-03-29T21:11:36;99882.25;;;5.56;100.00
47726;BME280;33483;48.294;16.388;2023-03-29T21:14:03;99881.97;;;5.54;100.00
47726;BME280;33483;48.294;16.388;2023-03-29T21:16:30;99871.19;;;5.50;100.00
47726;BME280;33483;48.294;16.388;2023-03-29T21:18:58;99868.94;;;5.49;100.00
47726;BME280;33483;48.294;16.388;2023-03-29T21:21:28;99875.38;;;5.46;100.00
47726;BME280;33483;48.294;16.388;2023-03-29T21:23:55;99874.38;;;5.43;100.00
47726;BME280;33483;48.294;16.388;2023-03-29T21:26:23;99872.38;;;5.44;100.00
47726;BME280;33483;48.294;16.388;2023-03-29T21:28:51;99869.38;;;5.47;100.00
47726;BME280;33483;48.294;16.388;2023-03-29T21:31:18;99864.38;;;5.46;100.00
47726;BME280;33483;48.294;16.388;2023-03-29T21:33:46;99872.63;;;5.46;100.00
47726;BME280;33483;48.294;16.388;2023-03-29T21:36:15;99863.88;;;5.42;100.00
47726;BME280;33483;48.294;16.388;2023-03-29T21:38:42;99870.09;;;5.42;100.00
47726;BME280;33483;48.294;16.388;2023-03-29T21:41:12;99867.34;;;5.42;100.00
47726;BME280;33483;48.294;16.388;2023-03-29T21:43:39;99864.59;;;5.42;100.00
47726;BME280;33483;48.294;16.388;2023-03-29T21:46:07;99852.88;;;5.42;100.00
47726;BME280;33483;48.294;16.388;2023-03-29T21:48:34;99855.06;;;5.38;100.00
47726;BME280;33483;48.294;16.388;2023-03-29T21:51:05;99850.59;;;5.40;100.00
47726;BME280;33483;48.294;16.388;2023-03-29T21:53:33;99842.38;;;5.40;100.00
47726;BME280;33483;48.294;16.388;2023-03-29T21:56:04;99848.94;;;5.48;100.00
47726;BME280;33483;48.294;16.388;2023-03-29T21:58:33;99847.66;;;5.44;100.00
47726;BME280;33483;48.294;16.388;2023-03-29T22:01:03;99844.91;;;5.44;100.00
47726;BME280;33483;48.294;16.388;2023-03-29T22:03:35;99848.88;;;5.43;100.00
47726;BME280;33483;48.294;16.388;2023-03-29T22:06:10;99841.59;;;5.40;100.00
47726;BME280;33483;48.294;16.388;2023-03-29T22:08:41;99838.84;;;5.40;100.00
47726;BME280;33483;48.294;16.388;2023-03-29T22:11:13;99835.81;;;5.38;100.00
47726;BME280;33483;48.294;16.388;2023-03-29T22:13:43;99835.56;;;5.36;100.00
47726;BME280;33483;48.294;16.388;2023-03-29T22:16:12;99839.34;;;5.38;100.00
47726;BME280;33483;48.294;16.388;2023-03-29T22:18:43;99835.06;;;5.37;100.00
47726;BME280;33483;48.294;16.388;2023-03-29T22:21:15;99835.06;;;5.37;100.00
47726;BME280;33483;48.294;16.388;2023-03-29T22:23:44;99823.06;;;5.35;100.00
47726;BME280;33483;48.294;16.388;2023-03-29T22:26:13;99820.25;;;5.29;100.00
47726;BME280;33483;48.294;16.388;2023-03-29T22:28:42;99827.47;;;5.27;100.00
47726;BME280;33483;48.294;16.388;2023-03-29T22:31:11;99825.97;;;5.26;100.00
47726;BME280;33483;48.294;16.388;2023-03-29T22:33:39;99828.50;;;5.29;100.00
47726;BME280;33483;48.294;16.388;2023-03-29T22:36:16;99823.22;;;5.26;100.00
47726;BME280;33483;48.294;16.388;2023-03-29T22:38:47;99833.78;;;5.33;100.00
47726;BME280;33483;48.294;16.388;2023-03-29T22:41:18;99835.50;;;5.30;100.00
47726;BME280;33483;48.294;16.388;2023-03-29T22:43:50;99833.22;;;5.29;100.00
47726;BME280;33483;48.294;16.388;2023-03-29T22:46:19;99823.16;;;5.20;100.00
47726;BME280;33483;48.294;16.388;2023-03-29T22:48:47;99831.25;;;5.29;100.00
47726;BME280;33483;48.294;16.388;2023-03-29T22:51:16;99824.19;;;5.23;100.00
47726;BME280;33483;48.294;16.388;2023-03-29T22:53:43;99825.13;;;5.20;100.00
47726;BME280;33483;48.294;16.388;2023-03-29T22:56:10;99824.06;;;5.12;100.00
47726;BME280;33483;48.294;16.388;2023-03-29T22:58:39;99826.41;;;5.19;100.00
47726;BME280;33483;48.294;16.388;2023-03-29T23:01:06;99820.06;;;5.13;100.00
47726;BME280;33483;48.294;16.388;2023-03-29T23:03:34;99818.78;;;5.08;100.00
47726;BME280;33483;48.294;16.388;2023-03-29T23:06:02;99818.44;;;5.01;100.00
47726;BME280;33483;48.294;16.388;2023-03-29T23:08:29;99819.13;;;4.96;100.00
47726;BME280;33483;48.294;16.388;2023-03-29T23:10:58;99809.41;;;4.95;100.00
47726;BME280;33483;48.294;16.388;2023-03-29T23:13:25;99811.09;;;4.92;100.00
47726;BME280;33483;48.294;16.388;2023-03-29T23:15:56;99808.84;;;4.91;100.00
47726;BME280;33483;48.294;16.388;2023-03-29T23:18:25;99812.28;;;4.86;100.00
47726;BME280;33483;48.294;16.388;2023-03-29T23:20:54;99821.00;;;4.84;100.00
47726;BME280;33483;48.294;16.388;2023-03-29T23:23:25;99823.13;;;4.75;100.00
47726;BME280;33483;48.294;16.388;2023-03-29T23:25:53;99797.75;;;4.59;100.00
47726;BME280;33483;48.294;16.388;2023-03-29T23:28:22;99803.09;;;4.48;100.00
47726;BME280;33483;48.294;16.388;2023-03-29T23:31:01;99804.19;;;4.36;100.00
47726;BME280;33483;48.294;16.388;2023-03-29T23:33:30;99799.28;;;4.26;100.00
47726;BME280;33483;48.294;16.388;2023-03-29T23:36:03;99794.88;;;4.14;100.00
47726;BME280;33483;48.294;16.388;2023-03-29T23:38:31;99789.03;;;4.06;100.00
47726;BME280;33483;48.294;16.388;2023-03-29T23:41:02;99799.38;;;3.97;100.00
47726;BME280;33483;48.294;16.388;2023-03-29T23:43:34;99798.28;;;3.89;100.00
47726;BME280;33483;48.294;16.388;2023-03-29T23:46:04;99799.41;;;3.82;100.00
47726;BME280;33483;48.294;16.388;2023-03-29T23:48:31;99805.94;;;3.70;100.00
47726;BME280;33483;48.294;16.388;2023-03-29T23:51:00;99795.84;;;3.62;100.00
47726;BME280;33483;48.294;16.388;2023-03-29T23:53:28;99799.91;;;3.52;100.00
47726;BME280;33483;48.294;16.388;2023-03-29T23:55:59;99803.50;;;3.43;100.00
47726;BME280;33483;48.294;16.388;2023-03-29T23:58:27;99794.13;;;3.35;100.00
